sensor_id;sensor_type;location;lat;lon;timestamp;P1;durP1;ratioP1;P2;durP2;ratioP2
66429;SDS011;53242;51.694;10.006;2024-03-02T00:00:06;27.35;;;9.68;;
66429;SDS011;53242;51.694;10.006;2024-03-02T00:02:39;28.15;;;10.45;;
66429;SDS011;53242;51.694;10.006;2024-03-02T00:05:06;25.48;;;9.63;;
66429;SDS011;53242;51.694;10.006;2024-03-02T00:07:29;25.63;;;9.82;;
66429;SDS011;53242;51.694;10.006;2024-03-02T00:09:53;26.05;;;10.00;;
66429;SDS011;53242;51.694;10.006;2024-03-02T00:12:16;26.73;;;9.52;;
66429;SDS011;53242;51.694;10.006;2024-03-02T00:14:38;29.50;;;8.98;;
66429;SDS011;53242;51.694;10.006;2024-03-02T00:17:01;26.13;;;9.32;;
66429;SDS011;53242;51.694;10.006;2024-03-02T00:19:24;26.83;;;9.20;;
66429;SDS011;53242;51.694;10.006;2024-03-02T00:21:47;22.17;;;7.03;;
66429;SDS011;53242;51.694;10.006;2024-03-02T00:24:18;25.27;;;9.40;;
66429;SDS011;53242;51.694;10.006;2024-03-02T00:26:45;30.27;;;9.05;;
66429;SDS011;53242;51.694;10.006;2024-03-02T00:29:08;26.60;;;9.05;;
66429;SDS011;53242;51.694;10.006;2024-03-02T00:31:35;23.98;;;8.30;;
66429;SDS011;53242;51.694;10.006;2024-03-02T00:33:57;25.75;;;9.25;;
66429;SDS011;53242;51.694;10.006;2024-03-02T00:36:26;23.73;;;9.13;;
66429;SDS011;53242;51.694;10.006;2024-03-02T00:38:50;27.63;;;8.77;;
66429;SDS011;53242;51.694;10.006;2024-03-02T00:41:23;27.25;;;10.02;;
66429;SDS011;53242;51.694;10.006;2024-03-02T00:44:00;27.45;;;9.23;;
66429;SDS011;53242;51.694;10.006;2024-03-02T00:46:23;27.08;;;9.10;;
66429;SDS011;53242;51.694;10.006;2024-03-02T00:48:53;26.92;;;9.75;;
66429;SDS011;53242;51.694;10.006;2024-03-02T00:51:17;24.48;;;7.97;;
66429;SDS011;53242;51.694;10.006;2024-03-02T00:53:39;31.55;;;9.95;;
66429;SDS011;53242;51.694;10.006;2024-03-02T00:56:02;25.55;;;8.90;;
66429;SDS011;53242;51.694;10.006;2024-03-02T00:58:25;20.80;;;7.88;;
66429;SDS011;53242;51.694;10.006;2024-03-02T01:00:47;24.42;;;9.10;;
66429;SDS011;53242;51.694;10.006;2024-03-02T01:03:09;29.08;;;9.90;;
66429;SDS011;53242;51.694;10.006;2024-03-02T01:05:32;24.42;;;8.73;;
66429;SDS011;53242;51.694;10.006;2024-03-02T01:07:55;17.58;;;6.57;;
66429;SDS011;53242;51.694;10.006;2024-03-02T01:10:17;22.92;;;8.05;;
66429;SDS011;53242;51.694;10.006;2024-03-02T01:12:39;25.10;;;8.25;;
66429;SDS011;53242;51.694;10.006;2024-03-02T01:15:02;26.20;;;9.20;;
66429;SDS011;53242;51.694;10.006;2024-03-02T01:17:27;24.60;;;9.88;;
66429;SDS011;53242;51.694;10.006;2024-03-02T01:19:50;24.95;;;9.35;;
66429;SDS011;53242;51.694;10.006;2024-03-02T01:22:12;24.83;;;8.25;;
66429;SDS011;53242;51.694;10.006;2024-03-02T01:24:35;26.45;;;9.48;;
66429;SDS011;53242;51.694;10.006;2024-03-02T01:26:57;23.55;;;8.32;;
66429;SDS011;53242;51.694;10.006;2024-03-02T01:29:19;25.00;;;8.68;;
66429;SDS011;53242;51.694;10.006;2024-03-02T01:31:42;25.02;;;8.48;;
66429;SDS011;53242;51.694;10.006;2024-03-02T01:34:04;25.80;;;9.05;;
66429;SDS011;53242;51.694;10.006;2024-03-02T01:36:27;19.95;;;7.68;;
66429;SDS011;53242;51.694;10.006;2024-03-02T01:38:49;21.58;;;7.40;;
66429;SDS011;53242;51.694;10.006;2024-03-02T01:41:12;21.42;;;7.43;;
66429;SDS011;53242;51.694;10.006;2024-03-02T01:43:34;20.27;;;7.55;;
66429;SDS011;53242;51.694;10.006;2024-03-02T01:45:56;21.85;;;7.32;;
66429;SDS011;53242;51.694;10.006;2024-03-02T01:48:19;20.35;;;7.18;;
66429;SDS011;53242;51.694;10.006;2024-03-02T01:50:41;19.55;;;6.88;;
66429;SDS011;53242;51.694;10.006;2024-03-02T01:53:04;17.85;;;6.50;;
66429;SDS011;53242;51.694;10.006;2024-03-02T01:55:26;20.25;;;7.53;;
66429;SDS011;53242;51.694;10.006;2024-03-02T01:57:52;22.30;;;7.85;;
66429;SDS011;53242;51.694;10.006;2024-03-02T02:00:14;19.65;;;7.40;;
66429;SDS011;53242;51.694;10.006;2024-03-02T02:02:37;22.73;;;7.78;;
66429;SDS011;53242;51.694;10.006;2024-03-02T02:05:00;23.20;;;8.40;;
66429;SDS011;53242;51.694;10.006;2024-03-02T02:07:22;22.40;;;8.07;;
66429;SDS011;53242;51.694;10.006;2024-03-02T02:09:44;22.13;;;8.70;;
66429;SDS011;53242;51.694;10.006;2024-03-02T02:12:07;26.45;;;8.75;;
66429;SDS011;53242;51.694;10.006;2024-03-02T02:14:30;23.00;;;7.97;;
66429;SDS011;53242;51.694;10.006;2024-03-02T02:16:52;29.05;;;9.02;;
66429;SDS011;53242;51.694;10.006;2024-03-02T02:19:14;27.27;;;8.93;;
66429;SDS011;53242;51.694;10.006;2024-03-02T02:21:37;25.17;;;9.40;;
66429;SDS011;53242;51.694;10.006;2024-03-02T02:23:59;22.58;;;9.05;;
66429;SDS011;53242;51.694;10.006;2024-03-02T02:26:23;27.75;;;9.95;;
66429;SDS011;53242;51.694;10.006;2024-03-02T02:28:45;25.58;;;10.68;;
66429;SDS011;53242;51.694;10.006;2024-03-02T02:31:10;26.88;;;9.63;;
66429;SDS011;53242;51.694;10.006;2024-03-02T02:33:33;30.58;;;10.63;;
66429;SDS011;53242;51.694;10.006;2024-03-02T02:35:55;30.23;;;10.35;;
66429;SDS011;53242;51.694;10.006;2024-03-02T02:38:17;32.22;;;10.68;;
66429;SDS011;53242;51.694;10.006;2024-03-02T02:40:42;34.28;;;11.95;;
66429;SDS011;53242;51.694;10.006;2024-03-02T02:43:04;30.60;;;10.45;;
66429;SDS011;53242;51.694;10.006;2024-03-02T02:45:26;31.63;;;11.45;;
66429;SDS011;53242;51.694;10.006;2024-03-02T02:47:49;30.55;;;11.02;;
66429;SDS011;53242;51.694;10.006;2024-03-02T02:50:11;29.73;;;10.25;;
66429;SDS011;53242;51.694;10.006;2024-03-02T02:52:34;35.88;;;10.68;;
66429;SDS011;53242;51.694;10.006;2024-03-02T02:54:58;29.02;;;10.27;;
66429;SDS011;53242;51.694;10.006;2024-03-02T02:57:21;30.00;;;10.25;;
66429;SDS011;53242;51.694;10.006;2024-03-02T02:59:43;29.00;;;9.27;;
66429;SDS011;53242;51.694;10.006;2024-03-02T03:02:06;35.60;;;10.95;;
66429;SDS011;53242;51.694;10.006;2024-03-02T03:04:28;29.20;;;10.32;;
66429;SDS011;53242;51.694;10.006;2024-03-02T03:06:50;29.35;;;10.77;;
66429;SDS011;53242;51.694;10.006;2024-03-02T03:09:13;22.75;;;8.25;;
66429;SDS011;53242;51.694;10.006;2024-03-02T03:11:35;29.50;;;10.05;;
66429;SDS011;53242;51.694;10.006;2024-03-02T03:13:58;31.85;;;11.32;;
66429;SDS011;53242;51.694;10.006;2024-03-02T03:16:22;31.27;;;10.43;;
66429;SDS011;53242;51.694;10.006;2024-03-02T03:18:44;28.67;;;10.27;;
66429;SDS011;53242;51.694;10.006;2024-03-02T03:21:07;30.52;;;11.77;;
66429;SDS011;53242;51.694;10.006;2024-03-02T03:23:29;30.48;;;9.57;;
66429;SDS011;53242;51.694;10.006;2024-03-02T03:25:52;31.13;;;11.00;;
66429;SDS011;53242;51.694;10.006;2024-03-02T03:28:14;32.35;;;10.88;;
66429;SDS011;53242;51.694;10.006;2024-03-02T03:30:37;32.80;;;11.25;;
66429;SDS011;53242;51.694;10.006;2024-03-02T03:33:00;33.65;;;11.25;;
66429;SDS011;53242;51.694;10.006;2024-03-02T03:35:22;31.17;;;11.07;;
66429;SDS011;53242;51.694;10.006;2024-03-02T03:37:44;28.38;;;9.95;;
66429;SDS011;53242;51.694;10.006;2024-03-02T03:40:07;24.15;;;8.70;;
66429;SDS011;53242;51.694;10.006;2024-03-02T03:42:33;31.50;;;10.23;;
66429;SDS011;53242;51.694;10.006;2024-03-02T03:44:55;30.15;;;10.30;;
66429;SDS011;53242;51.694;10.006;2024-03-02T03:47:17;34.60;;;11.07;;
66429;SDS011;53242;51.694;10.006;2024-03-02T03:49:40;30.90;;;10.73;;
66429;SDS011;53242;51.694;10.006;2024-03-02T03:52:03;29.90;;;10.75;;
66429;SDS011;53242;51.694;10.006;2024-03-02T03:54:26;31.83;;;10.63;;
66429;SDS011;53242;51.694;10.006;2024-03-02T03:56:49;35.97;;;12.18;;
66429;SDS011;53242;51.694;10.006;2024-03-02T03:59:11;31.58;;;9.90;;
66429;SDS011;53242;51.694;10.006;2024-03-02T04:01:33;31.15;;;11.00;;
66429;SDS011;53242;51.694;10.006;2024-03-02T04:03:56;29.63;;;9.27;;
66429;SDS011;53242;51.694;10.006;2024-03-02T04:06:19;31.25;;;11.45;;
66429;SDS011;53242;51.694;10.006;2024-03-02T04:08:42;32.60;;;10.98;;
66429;SDS011;53242;51.694;10.006;2024-03-02T04:11:05;32.03;;;11.35;;
66429;SDS011;53242;51.694;10.006;2024-03-02T04:13:29;32.28;;;11.20;;
66429;SDS011;53242;51.694;10.006;2024-03-02T04:15:52;32.38;;;10.48;;
66429;SDS011;53242;51.694;10.006;2024-03-02T04:18:14;30.35;;;10.45;;
66429;SDS011;53242;51.694;10.006;2024-03-02T04:20:37;32.22;;;10.93;;
66429;SDS011;53242;51.694;10.006;2024-03-02T04:22:59;31.95;;;11.85;;
66429;SDS011;53242;51.694;10.006;2024-03-02T04:25:21;31.20;;;11.15;;
66429;SDS011;53242;51.694;10.006;2024-03-02T04:27:44;31.40;;;11.27;;
66429;SDS011;53242;51.694;10.006;2024-03-02T04:30:06;30.55;;;10.70;;
66429;SDS011;53242;51.694;10.006;2024-03-02T04:32:29;29.90;;;10.50;;
66429;SDS011;53242;51.694;10.006;2024-03-02T04:34:51;21.10;;;7.85;;
66429;SDS011;53242;51.694;10.006;2024-03-02T04:37:14;35.78;;;11.57;;
66429;SDS011;53242;51.694;10.006;2024-03-02T04:39:37;28.55;;;10.65;;
66429;SDS011;53242;51.694;10.006;2024-03-02T04:41:59;32.00;;;11.13;;
66429;SDS011;53242;51.694;10.006;2024-03-02T04:44:22;31.77;;;11.15;;
66429;SDS011;53242;51.694;10.006;2024-03-02T04:46:44;30.05;;;10.73;;
66429;SDS011;53242;51.694;10.006;2024-03-02T04:49:07;32.92;;;10.93;;
66429;SDS011;53242;51.694;10.006;2024-03-02T04:51:29;21.10;;;7.65;;
66429;SDS011;53242;51.694;10.006;2024-03-02T04:53:52;30.55;;;10.90;;
66429;SDS011;53242;51.694;10.006;2024-03-02T04:56:14;34.35;;;10.40;;
66429;SDS011;53242;51.694;10.006;2024-03-02T04:58:55;28.65;;;9.77;;
66429;SDS011;53242;51.694;10.006;2024-03-02T05:01:17;32.60;;;10.18;;
66429;SDS011;53242;51.694;10.006;2024-03-02T05:03:39;29.98;;;11.00;;
66429;SDS011;53242;51.694;10.006;2024-03-02T05:06:02;30.17;;;10.30;;
66429;SDS011;53242;51.694;10.006;2024-03-02T05:08:24;33.80;;;10.27;;
66429;SDS011;53242;51.694;10.006;2024-03-02T05:10:47;30.25;;;9.85;;
66429;SDS011;53242;51.694;10.006;2024-03-02T05:13:09;28.35;;;9.25;;
66429;SDS011;53242;51.694;10.006;2024-03-02T05:15:32;29.85;;;10.90;;
66429;SDS011;53242;51.694;10.006;2024-03-02T05:17:54;27.33;;;10.45;;
66429;SDS011;53242;51.694;10.006;2024-03-02T05:20:18;28.45;;;10.23;;
66429;SDS011;53242;51.694;10.006;2024-03-02T05:22:41;31.38;;;10.75;;
66429;SDS011;53242;51.694;10.006;2024-03-02T05:25:04;33.60;;;9.88;;
66429;SDS011;53242;51.694;10.006;2024-03-02T05:27:27;32.97;;;10.68;;
66429;SDS011;53242;51.694;10.006;2024-03-02T05:29:49;34.20;;;11.45;;
66429;SDS011;53242;51.694;10.006;2024-03-02T05:32:12;32.60;;;10.55;;
66429;SDS011;53242;51.694;10.006;2024-03-02T05:34:34;32.10;;;11.02;;
66429;SDS011;53242;51.694;10.006;2024-03-02T05:36:57;38.20;;;13.32;;
66429;SDS011;53242;51.694;10.006;2024-03-02T05:39:19;28.92;;;9.63;;
66429;SDS011;53242;51.694;10.006;2024-03-02T05:41:42;31.27;;;10.07;;
66429;SDS011;53242;51.694;10.006;2024-03-02T05:44:04;30.13;;;10.35;;
66429;SDS011;53242;51.694;10.006;2024-03-02T05:46:27;30.35;;;10.13;;
66429;SDS011;53242;51.694;10.006;2024-03-02T05:48:50;32.33;;;10.57;;
66429;SDS011;53242;51.694;10.006;2024-03-02T05:51:12;30.85;;;10.57;;
66429;SDS011;53242;51.694;10.006;2024-03-02T05:53:34;30.05;;;9.30;;
66429;SDS011;53242;51.694;10.006;2024-03-02T05:56:00;32.05;;;10.48;;
66429;SDS011;53242;51.694;10.006;2024-03-02T05:58:22;29.50;;;10.07;;
66429;SDS011;53242;51.694;10.006;2024-03-02T06:01:03;30.83;;;10.73;;
66429;SDS011;53242;51.694;10.006;2024-03-02T06:03:27;25.63;;;9.07;;
66429;SDS011;53242;51.694;10.006;2024-03-02T06:05:50;28.83;;;11.48;;
66429;SDS011;53242;51.694;10.006;2024-03-02T06:08:13;29.80;;;10.02;;
66429;SDS011;53242;51.694;10.006;2024-03-02T06:10:35;30.23;;;10.23;;
66429;SDS011;53242;51.694;10.006;2024-03-02T06:12:57;28.15;;;8.55;;
66429;SDS011;53242;51.694;10.006;2024-03-02T06:15:21;34.50;;;10.32;;
66429;SDS011;53242;51.694;10.006;2024-03-02T06:17:43;32.05;;;10.65;;
66429;SDS011;53242;51.694;10.006;2024-03-02T06:20:06;35.55;;;11.68;;
66429;SDS011;53242;51.694;10.006;2024-03-02T06:22:30;30.77;;;10.73;;
66429;SDS011;53242;51.694;10.006;2024-03-02T06:24:52;33.28;;;10.20;;
66429;SDS011;53242;51.694;10.006;2024-03-02T06:27:14;29.45;;;9.57;;
66429;SDS011;53242;51.694;10.006;2024-03-02T06:29:37;22.83;;;8.13;;
66429;SDS011;53242;51.694;10.006;2024-03-02T06:31:59;31.23;;;11.27;;
66429;SDS011;53242;51.694;10.006;2024-03-02T06:34:22;27.40;;;9.48;;
66429;SDS011;53242;51.694;10.006;2024-03-02T06:36:44;28.13;;;9.95;;
66429;SDS011;53242;51.694;10.006;2024-03-02T06:39:07;28.08;;;9.50;;
66429;SDS011;53242;51.694;10.006;2024-03-02T06:41:29;26.88;;;8.77;;
66429;SDS011;53242;51.694;10.006;2024-03-02T06:43:51;25.85;;;9.38;;
66429;SDS011;53242;51.694;10.006;2024-03-02T06:46:21;33.95;;;10.90;;
66429;SDS011;53242;51.694;10.006;2024-03-02T06:48:43;24.33;;;8.85;;
66429;SDS011;53242;51.694;10.006;2024-03-02T06:51:06;34.28;;;11.02;;
66429;SDS011;53242;51.694;10.006;2024-03-02T06:53:28;30.85;;;10.15;;
66429;SDS011;53242;51.694;10.006;2024-03-02T06:55:52;29.95;;;11.02;;
66429;SDS011;53242;51.694;10.006;2024-03-02T06:58:14;34.30;;;10.90;;
66429;SDS011;53242;51.694;10.006;2024-03-02T07:00:37;30.85;;;10.65;;
66429;SDS011;53242;51.694;10.006;2024-03-02T07:03:00;32.47;;;10.73;;
66429;SDS011;53242;51.694;10.006;2024-03-02T07:05:22;33.47;;;11.20;;
66429;SDS011;53242;51.694;10.006;2024-03-02T07:07:45;30.90;;;11.70;;
66429;SDS011;53242;51.694;10.006;2024-03-02T07:10:07;36.00;;;10.60;;
66429;SDS011;53242;51.694;10.006;2024-03-02T07:12:30;32.75;;;10.90;;
66429;SDS011;53242;51.694;10.006;2024-03-02T07:14:53;31.60;;;9.82;;
66429;SDS011;53242;51.694;10.006;2024-03-02T07:17:18;32.85;;;11.77;;
66429;SDS011;53242;51.694;10.006;2024-03-02T07:19:41;35.80;;;11.88;;
66429;SDS011;53242;51.694;10.006;2024-03-02T07:22:05;32.00;;;11.15;;
66429;SDS011;53242;51.694;10.006;2024-03-02T07:24:29;34.30;;;12.05;;
66429;SDS011;53242;51.694;10.006;2024-03-02T07:26:51;35.40;;;11.88;;
66429;SDS011;53242;51.694;10.006;2024-03-02T07:29:13;29.38;;;10.52;;
66429;SDS011;53242;51.694;10.006;2024-03-02T07:31:36;32.85;;;11.10;;
66429;SDS011;53242;51.694;10.006;2024-03-02T07:33:59;32.03;;;10.40;;
66429;SDS011;53242;51.694;10.006;2024-03-02T07:36:21;31.38;;;11.00;;
66429;SDS011;53242;51.694;10.006;2024-03-02T07:38:43;32.03;;;10.77;;
66429;SDS011;53242;51.694;10.006;2024-03-02T07:41:07;32.03;;;10.52;;
66429;SDS011;53242;51.694;10.006;2024-03-02T07:43:30;32.85;;;10.65;;
66429;SDS011;53242;51.694;10.006;2024-03-02T07:45:55;31.75;;;11.02;;
66429;SDS011;53242;51.694;10.006;2024-03-02T07:48:18;30.35;;;10.32;;
66429;SDS011;53242;51.694;10.006;2024-03-02T07:50:40;29.00;;;9.95;;
66429;SDS011;53242;51.694;10.006;2024-03-02T07:53:03;31.27;;;12.05;;
66429;SDS011;53242;51.694;10.006;2024-03-02T07:55:26;28.35;;;9.30;;
66429;SDS011;53242;51.694;10.006;2024-03-02T07:57:48;27.13;;;9.07;;
66429;SDS011;53242;51.694;10.006;2024-03-02T08:00:11;34.30;;;10.48;;
66429;SDS011;53242;51.694;10.006;2024-03-02T08:02:36;31.20;;;9.55;;
66429;SDS011;53242;51.694;10.006;2024-03-02T08:04:59;30.42;;;10.65;;
66429;SDS011;53242;51.694;10.006;2024-03-02T08:07:21;28.08;;;10.27;;
66429;SDS011;53242;51.694;10.006;2024-03-02T08:09:43;28.60;;;10.30;;
66429;SDS011;53242;51.694;10.006;2024-03-02T08:12:06;25.40;;;8.88;;
66429;SDS011;53242;51.694;10.006;2024-03-02T08:14:28;31.02;;;12.10;;
66429;SDS011;53242;51.694;10.006;2024-03-02T08:16:51;29.90;;;10.38;;
66429;SDS011;53242;51.694;10.006;2024-03-02T08:19:13;29.65;;;10.93;;
66429;SDS011;53242;51.694;10.006;2024-03-02T08:21:36;29.95;;;10.90;;
66429;SDS011;53242;51.694;10.006;2024-03-02T08:23:58;33.40;;;11.43;;
66429;SDS011;53242;51.694;10.006;2024-03-02T08:26:21;25.60;;;9.40;;
66429;SDS011;53242;51.694;10.006;2024-03-02T08:28:44;33.80;;;11.95;;
66429;SDS011;53242;51.694;10.006;2024-03-02T08:31:06;24.30;;;8.70;;
66429;SDS011;53242;51.694;10.006;2024-03-02T08:33:29;27.73;;;8.52;;
66429;SDS011;53242;51.694;10.006;2024-03-02T08:35:52;27.38;;;10.27;;
66429;SDS011;53242;51.694;10.006;2024-03-02T08:38:14;28.48;;;10.50;;
66429;SDS011;53242;51.694;10.006;2024-03-02T08:40:36;33.20;;;11.27;;
66429;SDS011;53242;51.694;10.006;2024-03-02T08:42:59;31.45;;;10.70;;
66429;SDS011;53242;51.694;10.006;2024-03-02T08:45:21;26.38;;;9.32;;
66429;SDS011;53242;51.694;10.006;2024-03-02T08:47:44;28.85;;;9.88;;
66429;SDS011;53242;51.694;10.006;2024-03-02T08:50:06;20.88;;;7.70;;
66429;SDS011;53242;51.694;10.006;2024-03-02T08:52:30;26.83;;;8.18;;
66429;SDS011;53242;51.694;10.006;2024-03-02T08:54:52;29.38;;;10.90;;
66429;SDS011;53242;51.694;10.006;2024-03-02T08:57:15;28.67;;;9.20;;
66429;SDS011;53242;51.694;10.006;2024-03-02T08:59:37;30.77;;;11.27;;
66429;SDS011;53242;51.694;10.006;2024-03-02T09:02:00;30.30;;;10.57;;
66429;SDS011;53242;51.694;10.006;2024-03-02T09:04:22;24.27;;;8.85;;
66429;SDS011;53242;51.694;10.006;2024-03-02T09:06:45;29.02;;;10.07;;
66429;SDS011;53242;51.694;10.006;2024-03-02T09:09:07;29.73;;;9.73;;
66429;SDS011;53242;51.694;10.006;2024-03-02T09:11:30;26.77;;;9.25;;
66429;SDS011;53242;51.694;10.006;2024-03-02T09:13:52;26.55;;;9.93;;
66429;SDS011;53242;51.694;10.006;2024-03-02T09:16:15;25.25;;;9.63;;
66429;SDS011;53242;51.694;10.006;2024-03-02T09:18:37;25.67;;;10.40;;
66429;SDS011;53242;51.694;10.006;2024-03-02T09:21:00;27.90;;;9.50;;
66429;SDS011;53242;51.694;10.006;2024-03-02T09:23:22;26.55;;;9.82;;
66429;SDS011;53242;51.694;10.006;2024-03-02T09:25:45;28.65;;;10.95;;
66429;SDS011;53242;51.694;10.006;2024-03-02T09:28:07;29.05;;;9.80;;
66429;SDS011;53242;51.694;10.006;2024-03-02T09:30:29;26.27;;;10.02;;
66429;SDS011;53242;51.694;10.006;2024-03-02T09:32:52;26.63;;;9.80;;
66429;SDS011;53242;51.694;10.006;2024-03-02T09:35:14;32.78;;;10.93;;
66429;SDS011;53242;51.694;10.006;2024-03-02T09:37:37;25.15;;;9.27;;
66429;SDS011;53242;51.694;10.006;2024-03-02T09:39:59;28.63;;;10.55;;
66429;SDS011;53242;51.694;10.006;2024-03-02T09:42:21;29.67;;;9.98;;
66429;SDS011;53242;51.694;10.006;2024-03-02T09:44:45;28.88;;;10.88;;
66429;SDS011;53242;51.694;10.006;2024-03-02T09:47:07;26.38;;;9.27;;
66429;SDS011;53242;51.694;10.006;2024-03-02T09:49:30;28.25;;;10.50;;
66429;SDS011;53242;51.694;10.006;2024-03-02T09:51:52;26.30;;;10.52;;
66429;SDS011;53242;51.694;10.006;2024-03-02T09:54:16;29.70;;;10.10;;
66429;SDS011;53242;51.694;10.006;2024-03-02T09:56:39;23.45;;;8.77;;
66429;SDS011;53242;51.694;10.006;2024-03-02T09:59:02;28.50;;;9.63;;
66429;SDS011;53242;51.694;10.006;2024-03-02T10:01:24;24.73;;;10.10;;
66429;SDS011;53242;51.694;10.006;2024-03-02T10:03:47;27.48;;;10.25;;
66429;SDS011;53242;51.694;10.006;2024-03-02T10:06:18;26.15;;;9.63;;
66429;SDS011;53242;51.694;10.006;2024-03-02T10:08:44;29.65;;;9.82;;
66429;SDS011;53242;51.694;10.006;2024-03-02T10:11:07;21.48;;;8.73;;
66429;SDS011;53242;51.694;10.006;2024-03-02T10:13:29;26.80;;;9.23;;
66429;SDS011;53242;51.694;10.006;2024-03-02T10:15:52;22.38;;;8.50;;
66429;SDS011;53242;51.694;10.006;2024-03-02T10:18:15;21.85;;;8.75;;
66429;SDS011;53242;51.694;10.006;2024-03-02T10:20:48;23.67;;;8.38;;
66429;SDS011;53242;51.694;10.006;2024-03-02T10:23:15;24.60;;;8.48;;
66429;SDS011;53242;51.694;10.006;2024-03-02T10:25:38;26.33;;;8.40;;
66429;SDS011;53242;51.694;10.006;2024-03-02T10:28:01;23.42;;;8.43;;
66429;SDS011;53242;51.694;10.006;2024-03-02T10:30:23;21.60;;;8.63;;
66429;SDS011;53242;51.694;10.006;2024-03-02T10:32:45;27.73;;;8.90;;
66429;SDS011;53242;51.694;10.006;2024-03-02T10:35:08;22.45;;;7.88;;
66429;SDS011;53242;51.694;10.006;2024-03-02T10:37:31;23.33;;;8.23;;
66429;SDS011;53242;51.694;10.006;2024-03-02T10:39:54;24.45;;;8.57;;
66429;SDS011;53242;51.694;10.006;2024-03-02T10:42:17;23.27;;;8.20;;
66429;SDS011;53242;51.694;10.006;2024-03-02T10:44:41;24.75;;;8.40;;
66429;SDS011;53242;51.694;10.006;2024-03-02T10:47:05;23.77;;;9.00;;
66429;SDS011;53242;51.694;10.006;2024-03-02T10:49:27;22.65;;;8.20;;
66429;SDS011;53242;51.694;10.006;2024-03-02T10:51:51;24.75;;;9.10;;
66429;SDS011;53242;51.694;10.006;2024-03-02T10:54:14;25.23;;;7.95;;
66429;SDS011;53242;51.694;10.006;2024-03-02T10:56:40;20.70;;;7.15;;
66429;SDS011;53242;51.694;10.006;2024-03-02T10:59:06;21.48;;;8.50;;
66429;SDS011;53242;51.694;10.006;2024-03-02T11:01:39;21.17;;;7.60;;
66429;SDS011;53242;51.694;10.006;2024-03-02T11:04:04;20.45;;;7.30;;
66429;SDS011;53242;51.694;10.006;2024-03-02T11:06:30;19.50;;;7.40;;
66429;SDS011;53242;51.694;10.006;2024-03-02T11:08:55;18.88;;;7.07;;
66429;SDS011;53242;51.694;10.006;2024-03-02T11:11:22;24.35;;;7.75;;
66429;SDS011;53242;51.694;10.006;2024-03-02T11:13:51;19.08;;;6.93;;
66429;SDS011;53242;51.694;10.006;2024-03-02T11:16:23;18.75;;;6.82;;
66429;SDS011;53242;51.694;10.006;2024-03-02T11:18:58;17.73;;;6.30;;
66429;SDS011;53242;51.694;10.006;2024-03-02T11:21:22;16.38;;;6.05;;
66429;SDS011;53242;51.694;10.006;2024-03-02T11:23:44;17.90;;;6.53;;
66429;SDS011;53242;51.694;10.006;2024-03-02T11:26:19;17.10;;;6.07;;
66429;SDS011;53242;51.694;10.006;2024-03-02T11:28:42;17.75;;;6.00;;
66429;SDS011;53242;51.694;10.006;2024-03-02T11:31:05;17.83;;;5.78;;
66429;SDS011;53242;51.694;10.006;2024-03-02T11:33:27;15.90;;;6.18;;
66429;SDS011;53242;51.694;10.006;2024-03-02T11:35:51;13.65;;;5.28;;
66429;SDS011;53242;51.694;10.006;2024-03-02T11:38:14;15.48;;;6.07;;
66429;SDS011;53242;51.694;10.006;2024-03-02T11:40:36;19.25;;;7.18;;
66429;SDS011;53242;51.694;10.006;2024-03-02T11:43:01;16.88;;;6.28;;
66429;SDS011;53242;51.694;10.006;2024-03-02T11:45:24;18.23;;;5.95;;
66429;SDS011;53242;51.694;10.006;2024-03-02T11:47:49;15.02;;;6.25;;
66429;SDS011;53242;51.694;10.006;2024-03-02T11:50:13;12.93;;;4.40;;
66429;SDS011;53242;51.694;10.006;2024-03-02T11:52:35;11.30;;;4.00;;
66429;SDS011;53242;51.694;10.006;2024-03-02T11:54:58;13.05;;;4.20;;
66429;SDS011;53242;51.694;10.006;2024-03-02T11:57:23;13.45;;;4.05;;
66429;SDS011;53242;51.694;10.006;2024-03-02T11:59:45;12.82;;;4.57;;
66429;SDS011;53242;51.694;10.006;2024-03-02T12:02:13;14.15;;;4.65;;
66429;SDS011;53242;51.694;10.006;2024-03-02T12:04:37;11.07;;;3.58;;
66429;SDS011;53242;51.694;10.006;2024-03-02T12:07:00;9.95;;;3.80;;
66429;SDS011;53242;51.694;10.006;2024-03-02T12:09:23;13.13;;;4.97;;
66429;SDS011;53242;51.694;10.006;2024-03-02T12:11:45;12.48;;;4.97;;
66429;SDS011;53242;51.694;10.006;2024-03-02T12:14:11;14.93;;;5.40;;
66429;SDS011;53242;51.694;10.006;2024-03-02T12:16:36;14.45;;;5.63;;
66429;SDS011;53242;51.694;10.006;2024-03-02T12:19:01;12.55;;;4.97;;
66429;SDS011;53242;51.694;10.006;2024-03-02T12:21:23;15.02;;;4.75;;
66429;SDS011;53242;51.694;10.006;2024-03-02T12:23:45;15.65;;;5.20;;
66429;SDS011;53242;51.694;10.006;2024-03-02T12:26:08;17.20;;;6.38;;
66429;SDS011;53242;51.694;10.006;2024-03-02T12:28:30;15.80;;;5.82;;
66429;SDS011;53242;51.694;10.006;2024-03-02T12:30:54;11.75;;;3.70;;
66429;SDS011;53242;51.694;10.006;2024-03-02T12:33:16;11.45;;;4.43;;
66429;SDS011;53242;51.694;10.006;2024-03-02T12:35:40;14.77;;;5.50;;
66429;SDS011;53242;51.694;10.006;2024-03-02T12:38:03;15.85;;;5.75;;
66429;SDS011;53242;51.694;10.006;2024-03-02T12:40:26;17.35;;;6.80;;
66429;SDS011;53242;51.694;10.006;2024-03-02T12:42:49;13.77;;;5.95;;
66429;SDS011;53242;51.694;10.006;2024-03-02T12:45:12;16.73;;;5.55;;
66429;SDS011;53242;51.694;10.006;2024-03-02T12:47:35;14.40;;;5.55;;
66429;SDS011;53242;51.694;10.006;2024-03-02T12:49:58;17.25;;;6.05;;
66429;SDS011;53242;51.694;10.006;2024-03-02T12:52:21;14.10;;;5.25;;
66429;SDS011;53242;51.694;10.006;2024-03-02T12:54:44;13.88;;;5.28;;
66429;SDS011;53242;51.694;10.006;2024-03-02T12:57:06;15.48;;;6.07;;
66429;SDS011;53242;51.694;10.006;2024-03-02T12:59:29;13.50;;;5.00;;
66429;SDS011;53242;51.694;10.006;2024-03-02T13:01:55;13.63;;;5.20;;
66429;SDS011;53242;51.694;10.006;2024-03-02T13:04:27;15.73;;;6.07;;
66429;SDS011;53242;51.694;10.006;2024-03-02T13:06:51;15.05;;;6.45;;
66429;SDS011;53242;51.694;10.006;2024-03-02T13:09:14;12.80;;;5.03;;
66429;SDS011;53242;51.694;10.006;2024-03-02T13:11:38;16.00;;;5.90;;
66429;SDS011;53242;51.694;10.006;2024-03-02T13:14:01;14.63;;;5.25;;
66429;SDS011;53242;51.694;10.006;2024-03-02T13:16:23;15.27;;;5.10;;
66429;SDS011;53242;51.694;10.006;2024-03-02T13:18:46;13.32;;;5.55;;
66429;SDS011;53242;51.694;10.006;2024-03-02T13:21:08;14.52;;;5.72;;
66429;SDS011;53242;51.694;10.006;2024-03-02T13:23:30;16.42;;;5.82;;
66429;SDS011;53242;51.694;10.006;2024-03-02T13:25:53;13.23;;;4.78;;
66429;SDS011;53242;51.694;10.006;2024-03-02T13:28:15;17.23;;;5.88;;
66429;SDS011;53242;51.694;10.006;2024-03-02T13:30:38;14.80;;;5.97;;
66429;SDS011;53242;51.694;10.006;2024-03-02T13:33:00;13.18;;;4.50;;
66429;SDS011;53242;51.694;10.006;2024-03-02T13:35:23;13.35;;;5.45;;
66429;SDS011;53242;51.694;10.006;2024-03-02T13:37:45;13.15;;;4.78;;
66429;SDS011;53242;51.694;10.006;2024-03-02T13:40:08;13.85;;;4.65;;
66429;SDS011;53242;51.694;10.006;2024-03-02T13:42:35;14.10;;;5.05;;
66429;SDS011;53242;51.694;10.006;2024-03-02T13:44:57;13.73;;;5.30;;
66429;SDS011;53242;51.694;10.006;2024-03-02T13:47:19;14.98;;;5.75;;
66429;SDS011;53242;51.694;10.006;2024-03-02T13:49:43;12.98;;;5.00;;
66429;SDS011;53242;51.694;10.006;2024-03-02T13:52:07;14.40;;;5.03;;